Time;durP1;ratioP1;P1;durP2;ratioP2;P2;SDS_P1;SDS_P2;PMS_P1;PMS_P2;Temp;Humidity;BMP_temperature;BMP_pressure;BME280_temperature;BME280_humidity;BME280_pressure;Samples;Min_cycle;Max_cycle;Signal;HPM_P1;HPM_P2
2022/01/31 00:01:05;;;;;;;18.55;12.55;;;;;;;;;;5065778;28;20032;-82
2022/01/31 00:03:34;;;;;;;21.35;14.32;;;;;;;;;;5083945;28;20031;-81
2022/01/31 00:06:00;;;;;;;23.75;15.98;;;;;;;;;;5080655;28;20020;-79
2022/01/31 00:08:26;;;;;;;19.73;13.43;;;;;;;;;;5084633;28;20016;-79
2022/01/31 00:10:53;;;;;;;21.92;14.88;;;;;;;;;;5085176;28;20083;-81
2022/01/31 00:13:23;;;;;;;23.75;16.02;;;;;;;;;;5080643;28;20056;-81
2022/01/31 00:15:56;;;;;;;21.52;14.63;;;;;;;;;;5083157;28;20028;-81
2022/01/31 00:18:23;;;;;;;19.52;13.77;;;;;;;;;;5081673;28;20028;-79
2022/01/31 00:20:49;;;;;;;19.55;13.70;;;;;;;;;;5083393;28;20091;-78
2022/01/31 00:23:15;;;;;;;34.55;19.73;;;;;;;;;;5084998;28;20033;-79
2022/01/31 00:25:41;;;;;;;39.55;21.90;;;;;;;;;;5082896;28;20020;-79
2022/01/31 00:28:08;;;;;;;32.25;20.67;;;;;;;;;;5083895;28;20085;-79
2022/01/31 00:30:34;;;;;;;25.95;17.08;;;;;;;;;;5084312;28;20021;-80
2022/01/31 00:33:00;;;;;;;29.67;18.60;;;;;;;;;;5081956;28;20028;-79
2022/01/31 00:35:26;;;;;;;26.00;15.73;;;;;;;;;;5084387;28;20446;-79
2022/01/31 00:37:52;;;;;;;26.33;15.93;;;;;;;;;;5083744;28;20028;-81
2022/01/31 00:40:19;;;;;;;19.23;13.05;;;;;;;;;;5082457;28;20044;-82
2022/01/31 00:42:46;;;;;;;21.02;13.98;;;;;;;;;;5084150;28;20498;-79
2022/01/31 00:45:17;;;;;;;20.95;14.30;;;;;;;;;;5086519;28;20023;-79
2022/01/31 00:47:47;;;;;;;40.60;23.27;;;;;;;;;;5079085;28;20032;-78
2022/01/31 00:50:15;;;;;;;19.42;14.82;;;;;;;;;;5074016;28;20036;-80
2022/01/31 00:52:43;;;;;;;26.52;17.48;;;;;;;;;;5074016;28;20035;-80
2022/01/31 00:55:10;;;;;;;37.63;20.95;;;;;;;;;;5074033;28;20037;-81
2022/01/31 00:57:36;;;;;;;48.80;28.20;;;;;;;;;;5073833;28;20041;-80
2022/01/31 01:00:02;;;;;;;23.40;15.77;;;;;;;;;;5074022;28;20032;-80
2022/01/31 01:02:30;;;;;;;21.20;15.73;;;;;;;;;;5074008;28;20029;-80
2022/01/31 01:04:56;;;;;;;21.73;15.02;;;;;;;;;;5074192;28;20051;-79
2022/01/31 01:07:22;;;;;;;22.60;15.95;;;;;;;;;;5073907;28;20037;-80
2022/01/31 01:09:48;;;;;;;26.38;18.85;;;;;;;;;;5073740;28;20573;-79
2022/01/31 01:12:16;;;;;;;23.88;15.88;;;;;;;;;;5073720;28;20479;-79
2022/01/31 01:14:43;;;;;;;21.75;13.35;;;;;;;;;;5055623;28;20483;-81
2022/01/31 01:17:09;;;;;;;21.02;13.70;;;;;;;;;;5077615;28;20039;-80
2022/01/31 01:19:36;;;;;;;22.20;14.32;;;;;;;;;;5090366;28;20166;-78
2022/01/31 01:22:02;;;;;;;18.33;11.95;;;;;;;;;;5082942;28;20384;-79
2022/01/31 01:24:28;;;;;;;17.55;11.50;;;;;;;;;;5075851;28;20060;-79
2022/01/31 01:26:55;;;;;;;13.00;9.07;;;;;;;;;;5093694;28;20027;-78
2022/01/31 01:29:21;;;;;;;12.48;8.07;;;;;;;;;;5093768;28;20032;-79
2022/01/31 01:31:49;;;;;;;14.25;9.95;;;;;;;;;;5093360;28;20478;-78
2022/01/31 01:34:17;;;;;;;17.15;10.23;;;;;;;;;;5093483;28;20051;-79
2022/01/31 01:36:46;;;;;;;16.08;8.77;;;;;;;;;;5093298;28;20081;-79
2022/01/31 01:39:13;;;;;;;15.23;9.98;;;;;;;;;;5093373;28;20036;-78
2022/01/31 01:41:40;;;;;;;15.20;8.73;;;;;;;;;;5092076;28;20028;-79
2022/01/31 01:44:06;;;;;;;17.23;10.55;;;;;;;;;;5093390;28;20035;-79
2022/01/31 01:46:33;;;;;;;18.75;11.38;;;;;;;;;;5083741;28;20024;-79
2022/01/31 01:48:59;;;;;;;17.42;12.75;;;;;;;;;;5081927;28;20020;-81
2022/01/31 01:51:25;;;;;;;20.92;13.43;;;;;;;;;;5083411;28;20035;-79
2022/01/31 01:53:51;;;;;;;24.83;14.23;;;;;;;;;;5081674;28;20020;-78
2022/01/31 01:56:18;;;;;;;24.90;13.80;;;;;;;;;;5082126;28;20024;-79
2022/01/31 01:58:44;;;;;;;26.13;15.07;;;;;;;;;;5083217;28;20024;-78
2022/01/31 02:01:13;;;;;;;19.92;13.00;;;;;;;;;;5081325;28;20532;-81
2022/01/31 02:03:40;;;;;;;24.48;15.05;;;;;;;;;;5081767;28;20051;-79
2022/01/31 02:06:08;;;;;;;19.27;12.18;;;;;;;;;;5082979;28;20103;-79
2022/01/31 02:08:44;;;;;;;18.00;12.70;;;;;;;;;;5075266;28;20421;-79
2022/01/31 02:11:11;;;;;;;17.77;10.82;;;;;;;;;;5072728;28;20028;-78
2022/01/31 02:13:38;;;;;;;16.25;11.13;;;;;;;;;;5072409;28;20025;-81
2022/01/31 02:16:05;;;;;;;18.02;10.02;;;;;;;;;;5072580;28;20085;-79
2022/01/31 02:18:32;;;;;;;16.55;11.32;;;;;;;;;;5072537;28;20402;-78
2022/01/31 02:20:58;;;;;;;18.17;11.75;;;;;;;;;;5072447;28;20494;-80
2022/01/31 02:23:24;;;;;;;18.80;11.20;;;;;;;;;;5072616;28;20028;-78
2022/01/31 02:25:53;;;;;;;20.52;11.98;;;;;;;;;;5072347;28;20020;-81
2022/01/31 02:28:21;;;;;;;15.48;10.20;;;;;;;;;;5072455;28;20021;-82
2022/01/31 02:30:47;;;;;;;16.42;10.30;;;;;;;;;;5072216;28;20025;-78
2022/01/31 02:33:13;;;;;;;14.85;9.13;;;;;;;;;;5072441;28;20025;-80
2022/01/31 02:35:39;;;;;;;20.00;10.23;;;;;;;;;;5072236;28;20036;-78
2022/01/31 02:38:06;;;;;;;16.13;9.80;;;;;;;;;;5072593;28;20541;-79
2022/01/31 02:40:32;;;;;;;16.15;10.73;;;;;;;;;;5072125;28;20472;-80
2022/01/31 02:42:58;;;;;;;18.35;12.00;;;;;;;;;;5071996;28;20070;-79
2022/01/31 02:45:24;;;;;;;14.75;10.30;;;;;;;;;;5072322;28;20029;-81
2022/01/31 02:47:54;;;;;;;14.55;10.65;;;;;;;;;;5071964;28;20039;-78
2022/01/31 02:50:21;;;;;;;17.50;11.27;;;;;;;;;;5071932;28;20093;-79
2022/01/31 02:52:56;;;;;;;19.02;12.45;;;;;;;;;;5072051;28;20025;-81
2022/01/31 02:55:23;;;;;;;17.58;12.80;;;;;;;;;;5072012;28;20086;-80
2022/01/31 02:57:49;;;;;;;19.15;12.43;;;;;;;;;;5077924;28;20379;-78
2022/01/31 03:00:15;;;;;;;17.13;11.30;;;;;;;;;;5079021;28;20031;-81
2022/01/31 03:02:41;;;;;;;19.00;13.40;;;;;;;;;;5078536;28;20103;-81
2022/01/31 03:05:07;;;;;;;20.13;12.05;;;;;;;;;;5078783;28;20070;-79
2022/01/31 03:07:34;;;;;;;18.77;12.25;;;;;;;;;;5078622;28;20029;-81
2022/01/31 03:10:01;;;;;;;15.20;11.13;;;;;;;;;;5078661;28;20025;-79
2022/01/31 03:12:28;;;;;;;19.02;12.60;;;;;;;;;;5078582;28;20093;-79
2022/01/31 03:14:54;;;;;;;19.98;12.35;;;;;;;;;;5078436;28;20039;-81
2022/01/31 03:17:20;;;;;;;23.83;13.98;;;;;;;;;;5078628;28;20099;-80
2022/01/31 03:19:52;;;;;;;19.30;12.95;;;;;;;;;;5078340;28;20054;-81
2022/01/31 03:22:20;;;;;;;32.25;17.08;;;;;;;;;;5060683;28;20391;-80
2022/01/31 03:24:48;;;;;;;24.73;13.48;;;;;;;;;;5060229;28;20028;-81
2022/01/31 03:27:14;;;;;;;17.38;11.98;;;;;;;;;;5060606;28;20024;-78
2022/01/31 03:29:40;;;;;;;17.17;12.38;;;;;;;;;;5060265;28;20123;-80
2022/01/31 03:32:06;;;;;;;23.92;15.70;;;;;;;;;;5078518;28;20468;-80
2022/01/31 03:34:32;;;;;;;16.75;11.75;;;;;;;;;;5060348;28;20033;-79
2022/01/31 03:36:58;;;;;;;22.20;11.70;;;;;;;;;;5078384;28;20051;-82
2022/01/31 03:39:25;;;;;;;17.45;10.45;;;;;;;;;;5078452;28;20036;-79
2022/01/31 03:41:51;;;;;;;16.20;10.55;;;;;;;;;;5078209;28;20028;-79
2022/01/31 03:44:17;;;;;;;18.88;11.00;;;;;;;;;;5078432;28;20031;-80
2022/01/31 03:46:43;;;;;;;18.23;12.00;;;;;;;;;;5080487;28;20044;-80
2022/01/31 03:49:09;;;;;;;19.20;11.63;;;;;;;;;;5087595;28;20102;-79
2022/01/31 03:51:35;;;;;;;14.68;10.10;;;;;;;;;;5103785;28;20085;-80
2022/01/31 03:54:03;;;;;;;14.05;9.45;;;;;;;;;;5098199;28;20026;-78
2022/01/31 03:56:29;;;;;;;16.25;10.88;;;;;;;;;;5098517;28;20032;-79
2022/01/31 03:58:55;;;;;;;19.85;9.43;;;;;;;;;;5098322;28;20024;-80
2022/01/31 04:01:26;;;;;;;18.38;10.07;;;;;;;;;;5080346;28;20428;-79
2022/01/31 04:03:52;;;;;;;16.25;10.95;;;;;;;;;;5098257;28;20028;-79
2022/01/31 04:06:18;;;;;;;14.40;9.57;;;;;;;;;;5098666;28;20024;-78
2022/01/31 04:08:44;;;;;;;14.40;8.23;;;;;;;;;;5099685;28;20055;-79
2022/01/31 04:11:11;;;;;;;13.60;8.10;;;;;;;;;;5115610;28;20106;-81
2022/01/31 04:13:37;;;;;;;10.82;7.07;;;;;;;;;;5115494;28;20069;-79
2022/01/31 04:16:03;;;;;;;10.90;7.38;;;;;;;;;;5115236;28;20066;-80
2022/01/31 04:18:29;;;;;;;11.88;6.93;;;;;;;;;;5096818;28;20424;-79
2022/01/31 04:20:56;;;;;;;13.73;7.28;;;;;;;;;;5115193;28;20024;-81
2022/01/31 04:23:25;;;;;;;12.35;7.10;;;;;;;;;;5115348;28;20102;-79
2022/01/31 04:25:55;;;;;;;15.52;7.65;;;;;;;;;;5114905;28;20462;-78
2022/01/31 04:28:32;;;;;;;12.82;7.35;;;;;;;;;;5115202;28;20027;-81
2022/01/31 04:31:14;;;;;;;12.85;8.32;;;;;;;;;;5115139;28;20129;-80
2022/01/31 04:33:40;;;;;;;14.25;8.95;;;;;;;;;;5114861;28;20023;-81
2022/01/31 04:36:07;;;;;;;17.85;12.30;;;;;;;;;;5115004;28;20114;-79
2022/01/31 04:38:33;;;;;;;17.80;11.43;;;;;;;;;;5114765;28;20542;-80
2022/01/31 04:40:59;;;;;;;21.60;13.70;;;;;;;;;;5115019;28;20027;-78
2022/01/31 04:43:26;;;;;;;22.50;13.93;;;;;;;;;;5114853;28;20020;-80
2022/01/31 04:45:54;;;;;;;23.63;15.32;;;;;;;;;;5114822;28;20106;-80
2022/01/31 04:48:21;;;;;;;21.80;13.50;;;;;;;;;;5096783;28;20443;-79
2022/01/31 04:50:47;;;;;;;18.88;11.57;;;;;;;;;;5114284;28;20078;-79
2022/01/31 04:53:14;;;;;;;20.55;12.30;;;;;;;;;;5114647;28;20389;-81
2022/01/31 04:55:40;;;;;;;23.98;14.20;;;;;;;;;;5114596;28;20042;-80
2022/01/31 04:58:07;;;;;;;24.58;15.25;;;;;;;;;;5114639;28;20038;-81
2022/01/31 05:00:34;;;;;;;29.85;17.95;;;;;;;;;;5114412;28;20106;-79
2022/01/31 05:03:00;;;;;;;22.70;14.30;;;;;;;;;;5114618;28;20023;-79
2022/01/31 05:05:26;;;;;;;20.85;13.07;;;;;;;;;;5114533;28;20129;-79
2022/01/31 05:07:54;;;;;;;21.40;13.60;;;;;;;;;;5096213;28;21124;-78
2022/01/31 05:10:21;;;;;;;85.13;55.13;;;;;;;;;;5115481;28;20031;-80
2022/01/31 05:12:47;;;;;;;48.28;31.88;;;;;;;;;;5114756;28;20035;-81
2022/01/31 05:15:13;;;;;;;27.77;18.63;;;;;;;;;;5114477;28;20069;-79
2022/01/31 05:17:39;;;;;;;14.20;8.80;;;;;;;;;;5114476;28;20020;-79
2022/01/31 05:20:06;;;;;;;100.47;61.85;;;;;;;;;;5113097;28;20028;-81
2022/01/31 05:22:32;;;;;;;19.08;12.95;;;;;;;;;;5114208;28;20030;-81
2022/01/31 05:24:58;;;;;;;20.60;11.02;;;;;;;;;;5113945;28;20440;-80
2022/01/31 05:27:24;;;;;;;15.88;7.53;;;;;;;;;;5114070;28;20062;-79
2022/01/31 05:29:50;;;;;;;13.05;6.80;;;;;;;;;;5113912;28;20059;-80
2022/01/31 05:32:16;;;;;;;17.60;9.50;;;;;;;;;;5114174;28;20027;-81
2022/01/31 05:34:42;;;;;;;15.75;8.57;;;;;;;;;;5113493;28;20379;-81
2022/01/31 05:37:08;;;;;;;15.65;8.35;;;;;;;;;;5113909;28;20061;-80
2022/01/31 05:39:35;;;;;;;10.15;7.00;;;;;;;;;;5113892;28;20076;-80
2022/01/31 05:42:01;;;;;;;15.65;9.52;;;;;;;;;;5113703;28;20024;-80
2022/01/31 05:44:27;;;;;;;22.10;12.50;;;;;;;;;;5113779;28;20365;-81
2022/01/31 05:46:53;;;;;;;13.95;7.05;;;;;;;;;;5095307;28;20437;-79
2022/01/31 05:49:19;;;;;;;19.83;10.70;;;;;;;;;;5113492;28;20083;-81
2022/01/31 05:51:45;;;;;;;17.40;9.55;;;;;;;;;;5113507;28;20027;-81
2022/01/31 05:54:11;;;;;;;14.50;7.38;;;;;;;;;;5113357;28;20031;-82
2022/01/31 05:56:38;;;;;;;10.73;5.50;;;;;;;;;;5113508;28;20173;-82
2022/01/31 05:59:04;;;;;;;9.65;4.25;;;;;;;;;;5113321;28;20027;-80
2022/01/31 06:01:30;;;;;;;19.23;13.80;;;;;;;;;;5113507;28;20076;-81
2022/01/31 06:03:56;;;;;;;16.73;9.35;;;;;;;;;;5094734;28;20042;-81
2022/01/31 06:06:22;;;;;;;65.82;33.03;;;;;;;;;;5113522;28;20098;-82
2022/01/31 06:08:48;;;;;;;54.88;29.58;;;;;;;;;;5095041;28;20396;-79
2022/01/31 06:11:15;;;;;;;86.68;48.13;;;;;;;;;;5113320;28;20024;-80
2022/01/31 06:13:44;;;;;;;71.28;39.30;;;;;;;;;;5112818;28;20030;-82
2022/01/31 06:16:11;;;;;;;77.68;44.17;;;;;;;;;;5094856;28;20035;-80
2022/01/31 06:18:37;;;;;;;62.15;37.28;;;;;;;;;;5112838;28;20031;-81
2022/01/31 06:21:03;;;;;;;59.33;35.50;;;;;;;;;;5112178;28;20038;-79
2022/01/31 06:23:29;;;;;;;45.20;28.13;;;;;;;;;;5112637;28;20028;-81
2022/01/31 06:25:56;;;;;;;51.85;31.48;;;;;;;;;;5111603;28;20103;-80
2022/01/31 06:28:23;;;;;;;51.60;32.63;;;;;;;;;;5112609;28;20020;-79
2022/01/31 06:30:49;;;;;;;66.35;41.15;;;;;;;;;;5111692;28;20032;-80
2022/01/31 06:33:16;;;;;;;22.20;14.25;;;;;;;;;;5113364;28;20039;-83
2022/01/31 06:35:43;;;;;;;54.22;32.05;;;;;;;;;;5095737;28;20036;-81
2022/01/31 06:38:09;;;;;;;54.53;33.30;;;;;;;;;;5091213;28;20054;-79
2022/01/31 06:40:36;;;;;;;49.92;30.05;;;;;;;;;;5092436;28;20051;-84
2022/01/31 06:43:02;;;;;;;51.88;29.33;;;;;;;;;;5091710;28;20475;-81
2022/01/31 06:45:28;;;;;;;58.72;35.05;;;;;;;;;;5092285;28;20386;-83
2022/01/31 06:47:54;;;;;;;70.63;42.08;;;;;;;;;;5091880;28;20051;-81
2022/01/31 06:50:20;;;;;;;72.57;39.80;;;;;;;;;;5091835;28;20040;-84
2022/01/31 06:52:50;;;;;;;58.80;33.92;;;;;;;;;;5099419;28;20067;-83
2022/01/31 06:55:19;;;;;;;35.90;18.75;;;;;;;;;;5112596;28;20043;-85
2022/01/31 06:57:51;;;;;;;33.67;19.75;;;;;;;;;;5112815;28;20038;-86
2022/01/31 07:00:19;;;;;;;38.75;20.75;;;;;;;;;;5090747;28;20038;-85
2022/01/31 07:02:46;;;;;;;36.25;21.00;;;;;;;;;;5072284;28;20450;-84
2022/01/31 07:07:57;;;;;;;85.70;54.03;;;;;;;;;;5091841;28;20043;-82
2022/01/31 07:10:23;;;;;;;66.65;42.38;;;;;;;;;;5091459;28;20024;-80
2022/01/31 07:12:53;;;;;;;95.78;53.95;;;;;;;;;;5089834;28;20111;-81
2022/01/31 07:15:19;;;;;;;84.13;49.63;;;;;;;;;;5110515;28;20186;-82
2022/01/31 07:17:46;;;;;;;55.28;35.78;;;;;;;;;;5111542;28;20030;-80
2022/01/31 07:20:21;;;;;;;60.92;37.92;;;;;;;;;;5093006;28;20024;-79
2022/01/31 07:22:53;;;;;;;94.13;54.60;;;;;;;;;;5111354;28;20032;-79
2022/01/31 07:25:34;;;;;;;89.85;55.75;;;;;;;;;;5110882;28;20398;-82
2022/01/31 07:28:01;;;;;;;84.47;47.20;;;;;;;;;;5111224;28;20379;-82
2022/01/31 07:30:27;;;;;;;101.95;51.63;;;;;;;;;;5092457;28;20092;-80
2022/01/31 07:32:53;;;;;;;58.60;34.38;;;;;;;;;;5111296;28;20084;-80
2022/01/31 07:35:20;;;;;;;49.38;29.65;;;;;;;;;;5110890;28;20074;-81
2022/01/31 07:37:46;;;;;;;59.50;36.92;;;;;;;;;;5110814;28;20036;-82
2022/01/31 07:40:14;;;;;;;45.60;24.45;;;;;;;;;;5110727;28;20148;-86
2022/01/31 07:42:41;;;;;;;46.90;31.33;;;;;;;;;;5111142;28;20023;-79
2022/01/31 07:45:07;;;;;;;50.33;31.40;;;;;;;;;;5114765;28;20067;-83
2022/01/31 07:47:33;;;;;;;53.25;33.83;;;;;;;;;;5096774;28;20542;-81
2022/01/31 07:49:59;;;;;;;61.55;36.83;;;;;;;;;;5106314;28;20059;-81
2022/01/31 07:52:26;;;;;;;59.42;36.45;;;;;;;;;;5094062;28;20028;-85
2022/01/31 07:54:53;;;;;;;55.45;35.00;;;;;;;;;;5094363;28;20112;-81
2022/01/31 07:57:20;;;;;;;45.55;26.67;;;;;;;;;;5094258;28;20120;-81
2022/01/31 07:59:46;;;;;;;39.00;25.42;;;;;;;;;;5093896;28;20039;-81
2022/01/31 08:02:12;;;;;;;46.20;26.92;;;;;;;;;;5093947;28;20019;-80
2022/01/31 08:04:38;;;;;;;29.38;17.77;;;;;;;;;;5093944;28;20052;-83
2022/01/31 08:07:04;;;;;;;27.60;16.65;;;;;;;;;;5093804;28;20051;-80
2022/01/31 08:09:31;;;;;;;22.83;13.77;;;;;;;;;;5094130;28;20036;-82
2022/01/31 08:12:00;;;;;;;23.90;14.93;;;;;;;;;;5092933;28;20028;-84
2022/01/31 08:14:27;;;;;;;36.40;20.33;;;;;;;;;;5073644;28;20043;-86
2022/01/31 08:16:53;;;;;;;28.67;17.30;;;;;;;;;;5073330;28;20399;-82
2022/01/31 08:19:19;;;;;;;27.17;15.45;;;;;;;;;;5073669;28;20466;-82
2022/01/31 08:21:45;;;;;;;41.90;27.98;;;;;;;;;;5055680;28;20773;-82
2022/01/31 08:24:11;;;;;;;35.25;20.88;;;;;;;;;;5073577;28;20116;-87
2022/01/31 08:26:39;;;;;;;24.55;16.25;;;;;;;;;;5073156;28;20060;-78
2022/01/31 08:31:53;;;;;;;15.40;7.05;;;;;;;;;;5073321;28;20154;-81
2022/01/31 08:34:24;;;;;;;19.02;9.57;;;;;;;;;;5073348;28;20056;-81
2022/01/31 08:36:51;;;;;;;20.58;11.48;;;;;;;;;;5073347;28;20044;-81
2022/01/31 08:39:19;;;;;;;17.50;8.68;;;;;;;;;;5055587;28;20477;-88
2022/01/31 08:41:47;;;;;;;15.18;7.18;;;;;;;;;;5055898;28;20479;-82
2022/01/31 08:44:18;;;;;;;8.60;3.10;;;;;;;;;;5074511;28;20099;-84
2022/01/31 08:46:45;;;;;;;13.85;3.13;;;;;;;;;;5073715;28;20479;-80
2022/01/31 08:49:13;;;;;;;8.10;2.90;;;;;;;;;;5075267;28;20031;-90
2022/01/31 08:51:39;;;;;;;12.45;4.72;;;;;;;;;;5092905;28;20032;-84
2022/01/31 08:54:08;;;;;;;10.65;5.28;;;;;;;;;;5093297;28;20476;-83
2022/01/31 08:56:40;;;;;;;19.70;10.95;;;;;;;;;;5092512;28;20036;-82
2022/01/31 08:59:29;;;;;;;12.00;4.45;;;;;;;;;;5093374;28;20068;-85
2022/01/31 09:02:13;;;;;;;17.30;7.97;;;;;;;;;;5036389;28;20398;-85
2022/01/31 09:07:41;;;;;;;13.07;3.72;;;;;;;;;;5093171;28;20082;-87
2022/01/31 09:10:07;;;;;;;11.07;4.03;;;;;;;;;;5093216;28;20059;-84
2022/01/31 09:12:35;;;;;;;8.48;4.18;;;;;;;;;;5105566;28;20027;-84
2022/01/31 09:15:01;;;;;;;10.93;2.92;;;;;;;;;;5112986;28;20036;-83
2022/01/31 09:17:28;;;;;;;6.53;1.80;;;;;;;;;;5112689;28;20027;-81
2022/01/31 09:19:54;;;;;;;9.27;1.40;;;;;;;;;;5113210;28;20077;-81
2022/01/31 09:22:20;;;;;;;5.30;1.33;;;;;;;;;;5113430;28;20019;-81
2022/01/31 09:24:47;;;;;;;3.53;0.90;;;;;;;;;;5112988;28;20031;-83
2022/01/31 09:27:13;;;;;;;7.28;1.73;;;;;;;;;;5113304;28;20167;-84
2022/01/31 09:29:39;;;;;;;7.78;2.30;;;;;;;;;;5101056;28;20028;-86
2022/01/31 09:32:05;;;;;;;9.07;4.15;;;;;;;;;;5092785;28;20035;-83
2022/01/31 09:34:32;;;;;;;5.15;2.40;;;;;;;;;;5074267;28;20039;-86
2022/01/31 09:36:59;;;;;;;7.82;4.57;;;;;;;;;;5092668;28;20024;-85
2022/01/31 09:39:27;;;;;;;12.15;4.38;;;;;;;;;;5092473;28;20108;-82
2022/01/31 09:41:56;;;;;;;5.72;2.58;;;;;;;;;;5092090;28;20572;-83
2022/01/31 09:47:19;;;;;;;;;;;;;;;;;;5092440;28;20052;-82
2022/01/31 09:49:46;;;;;;;13.85;5.22;;;;;;;;;;5073910;28;20045;-88
2022/01/31 09:52:12;;;;;;;10.85;4.55;;;;;;;;;;5092446;28;20032;-79
2022/01/31 09:54:38;;;;;;;5.57;1.60;;;;;;;;;;5091974;28;20503;-85
2022/01/31 09:57:07;;;;;;;7.47;2.80;;;;;;;;;;5073848;28;20490;-83
2022/01/31 09:59:33;;;;;;;18.67;9.27;;;;;;;;;;5091748;28;20024;-79
2022/01/31 10:02:11;;;;;;;10.85;4.55;;;;;;;;;;5091428;28;20113;-80
2022/01/31 10:04:42;;;;;;;11.55;3.75;;;;;;;;;;5073584;28;20398;-82
2022/01/31 10:07:08;;;;;;;5.95;2.60;;;;;;;;;;5091002;28;20024;-82
2022/01/31 10:09:34;;;;;;;11.82;4.78;;;;;;;;;;5073740;28;20546;-80
2022/01/31 10:12:07;;;;;;;13.98;6.20;;;;;;;;;;5099434;28;20032;-82
2022/01/31 10:17:22;;;;;;;10.27;4.68;;;;;;;;;;5112006;28;20039;-76
2022/01/31 10:19:48;;;;;;;8.95;3.35;;;;;;;;;;5111954;28;20027;-77
2022/01/31 10:22:16;;;;;;;8.50;4.13;;;;;;;;;;5111898;28;20486;-79
2022/01/31 10:24:47;;;;;;;7.45;1.98;;;;;;;;;;5112099;28;20020;-81
2022/01/31 10:27:18;;;;;;;7.10;3.58;;;;;;;;;;5112275;28;20027;-82
2022/01/31 10:29:45;;;;;;;7.10;2.75;;;;;;;;;;5112134;28;20027;-84
2022/01/31 10:32:14;;;;;;;19.92;8.55;;;;;;;;;;5107577;28;20037;-86
2022/01/31 10:34:51;;;;;;;8.95;4.28;;;;;;;;;;5104771;28;20099;-81
2022/01/31 10:37:19;;;;;;;5.88;2.08;;;;;;;;;;5112110;28;20027;-80
2022/01/31 10:56:46;;;;;;;5.37;2.00;;;;;;;;;;5091562;28;20507;-85
2022/01/31 10:59:13;;;;;;;6.32;1.58;;;;;;;;;;5091352;28;20028;-82
2022/01/31 11:01:40;;;;;;;6.10;2.13;;;;;;;;;;5091541;28;20054;-81
2022/01/31 11:04:12;;;;;;;5.55;2.05;;;;;;;;;;5090791;28;20565;-81
2022/01/31 11:06:40;;;;;;;4.97;1.58;;;;;;;;;;5055537;28;20051;-85
2022/01/31 11:09:10;;;;;;;8.35;2.10;;;;;;;;;;5073886;28;20153;-85
2022/01/31 11:11:41;;;;;;;7.95;3.03;;;;;;;;;;5073383;28;20084;-84
2022/01/31 11:14:08;;;;;;;7.30;2.63;;;;;;;;;;5090251;28;20081;-82
2022/01/31 11:16:35;;;;;;;7.32;2.28;;;;;;;;;;5082266;28;20376;-81
2022/01/31 11:19:02;;;;;;;7.78;2.17;;;;;;;;;;5081188;28;20024;-81
2022/01/31 11:21:31;;;;;;;8.98;2.33;;;;;;;;;;5061134;28;20119;-83
2022/01/31 11:24:02;;;;;;;9.70;2.60;;;;;;;;;;5082567;28;20085;-81
2022/01/31 11:26:35;;;;;;;7.65;2.33;;;;;;;;;;5088772;28;20111;-79
2022/01/31 11:29:02;;;;;;;6.97;2.53;;;;;;;;;;5054254;28;20033;-81
2022/01/31 11:31:29;;;;;;;10.63;3.95;;;;;;;;;;5064645;28;20553;-84
2022/01/31 11:33:58;;;;;;;5.72;2.60;;;;;;;;;;5066176;28;20121;-80
2022/01/31 11:36:24;;;;;;;8.57;2.90;;;;;;;;;;5081488;28;20063;-83
2022/01/31 11:38:51;;;;;;;19.00;11.55;;;;;;;;;;5084427;28;20411;-81
2022/01/31 11:41:17;;;;;;;7.40;3.00;;;;;;;;;;5088339;28;20036;-84
2022/01/31 11:43:47;;;;;;;10.32;3.78;;;;;;;;;;5094876;28;20090;-80
2022/01/31 11:46:13;;;;;;;6.78;3.13;;;;;;;;;;5094367;28;20020;-83
2022/01/31 11:48:40;;;;;;;6.95;3.28;;;;;;;;;;5093770;28;20043;-82
2022/01/31 11:51:06;;;;;;;5.43;2.15;;;;;;;;;;5112145;28;20055;-82
2022/01/31 11:53:34;;;;;;;6.20;2.10;;;;;;;;;;5114741;28;20037;-80
2022/01/31 11:56:02;;;;;;;6.10;2.33;;;;;;;;;;5095591;28;20035;-81
2022/01/31 11:58:31;;;;;;;8.93;2.08;;;;;;;;;;5095590;28;20137;-81
2022/01/31 12:01:00;;;;;;;6.45;1.88;;;;;;;;;;5115147;28;20040;-74
2022/01/31 12:03:27;;;;;;;5.82;2.13;;;;;;;;;;5115013;28;20030;-84
2022/01/31 12:05:54;;;;;;;11.57;4.28;;;;;;;;;;5114804;28;20054;-83
2022/01/31 12:08:23;;;;;;;9.48;2.38;;;;;;;;;;5107123;28;20028;-84
2022/01/31 12:10:57;;;;;;;11.25;3.50;;;;;;;;;;5108559;28;20486;-85
2022/01/31 12:13:44;;;;;;;11.95;3.30;;;;;;;;;;5112044;28;20497;-84
2022/01/31 12:22:08;;;;;;;10.38;4.78;;;;;;;;;;5006787;28;20030;-79
2022/01/31 12:24:43;;;;;;;7.60;2.40;;;;;;;;;;4995790;28;20030;-82
2022/01/31 12:27:14;;;;;;;10.85;2.75;;;;;;;;;;5032255;28;20126;-82
2022/01/31 12:29:42;;;;;;;9.57;2.78;;;;;;;;;;5112612;28;20420;-80
2022/01/31 12:32:26;;;;;;;6.32;2.72;;;;;;;;;;5107375;28;20104;-79
2022/01/31 12:34:55;;;;;;;9.95;5.47;;;;;;;;;;5098087;28;20040;-80
2022/01/31 12:37:39;;;;;;;12.88;6.10;;;;;;;;;;5093575;28;20034;-77
2022/01/31 12:40:08;;;;;;;12.95;4.45;;;;;;;;;;5097710;28;20073;-81
2022/01/31 12:45:13;;;;;;;17.75;4.30;;;;;;;;;;5092010;28;20175;-82
2022/01/31 12:47:59;;;;;;;21.27;5.57;;;;;;;;;;5082954;28;20032;-84
2022/01/31 12:50:30;;;;;;;7.68;3.80;;;;;;;;;;5094164;28;20047;-86
2022/01/31 12:52:57;;;;;;;12.38;3.00;;;;;;;;;;5094859;28;20034;-82
2022/01/31 12:55:27;;;;;;;11.75;4.63;;;;;;;;;;5112309;28;20035;-81
2022/01/31 12:57:54;;;;;;;17.40;8.30;;;;;;;;;;5095017;28;20023;-83
2022/01/31 13:00:40;;;;;;;16.70;9.23;;;;;;;;;;5112932;28;20060;-80
2022/01/31 13:03:07;;;;;;;21.38;8.05;;;;;;;;;;5110441;28;20031;-81
2022/01/31 13:05:34;;;;;;;41.08;15.55;;;;;;;;;;5092349;28;20032;-82
2022/01/31 13:08:00;;;;;;;7.45;3.35;;;;;;;;;;5092929;28;20031;-85
2022/01/31 13:10:36;;;;;;;19.50;8.38;;;;;;;;;;5092630;28;20062;-82
2022/01/31 13:13:03;;;;;;;16.95;7.18;;;;;;;;;;5110172;28;20024;-80
2022/01/31 13:15:29;;;;;;;23.95;8.18;;;;;;;;;;5107950;28;20051;-78
2022/01/31 13:18:09;;;;;;;6.15;2.53;;;;;;;;;;5092764;28;20020;-80
2022/01/31 13:20:37;;;;;;;8.35;3.50;;;;;;;;;;5080543;28;20095;-80
2022/01/31 13:23:04;;;;;;;22.05;9.93;;;;;;;;;;5101945;28;20031;-81
2022/01/31 13:25:31;;;;;;;17.33;7.50;;;;;;;;;;5099849;28;20383;-80
2022/01/31 13:27:58;;;;;;;12.82;7.68;;;;;;;;;;5101979;28;20382;-85
2022/01/31 13:30:26;;;;;;;23.05;10.32;;;;;;;;;;5094604;28;20030;-85
2022/01/31 13:32:53;;;;;;;82.70;51.75;;;;;;;;;;5092590;28;20025;-84
2022/01/31 13:35:24;;;;;;;20.65;11.57;;;;;;;;;;5093109;28;20085;-84
2022/01/31 13:38:10;;;;;;;50.22;16.85;;;;;;;;;;5074444;28;20024;-82
2022/01/31 13:40:41;;;;;;;41.13;14.40;;;;;;;;;;5092281;28;20063;-79
2022/01/31 13:43:28;;;;;;;31.02;11.20;;;;;;;;;;5093167;28;20032;-73
2022/01/31 13:49:13;;;;;;;15.45;8.00;;;;;;;;;;5093403;28;20038;-84
2022/01/31 13:51:43;;;;;;;24.05;12.20;;;;;;;;;;5071513;28;20041;-85
2022/01/31 13:54:12;;;;;;;16.00;9.35;;;;;;;;;;5072614;28;20548;-82
2022/01/31 13:56:39;;;;;;;32.42;19.98;;;;;;;;;;5072867;28;20024;-83
2022/01/31 13:59:09;;;;;;;21.58;13.02;;;;;;;;;;5072702;28;20154;-85
2022/01/31 14:01:36;;;;;;;23.30;11.32;;;;;;;;;;5071563;28;20107;-82
2022/01/31 14:04:02;;;;;;;26.00;13.73;;;;;;;;;;5073083;28;20467;-86
2022/01/31 14:06:35;;;;;;;35.17;18.40;;;;;;;;;;5071494;28;20066;-83
2022/01/31 14:09:03;;;;;;;17.98;8.43;;;;;;;;;;5072544;28;20364;-83
2022/01/31 14:11:39;;;;;;;18.48;10.07;;;;;;;;;;5072957;28;20049;-85
2022/01/31 14:14:06;;;;;;;16.30;6.65;;;;;;;;;;5055255;28;20120;-84
2022/01/31 14:16:36;;;;;;;19.55;8.85;;;;;;;;;;5054117;28;20072;-83
2022/01/31 14:19:07;;;;;;;19.05;10.05;;;;;;;;;;5072366;28;20025;-89
2022/01/31 14:21:35;;;;;;;31.77;19.33;;;;;;;;;;5073234;28;20466;-83
2022/01/31 14:24:02;;;;;;;37.22;17.38;;;;;;;;;;5072431;28;20131;-85
2022/01/31 14:26:47;;;;;;;36.25;16.75;;;;;;;;;;5071975;28;20029;-82
2022/01/31 14:29:14;;;;;;;;;;;;;;;;;;5052546;28;20048;-83
2022/01/31 14:31:43;;;;;;;53.10;31.15;;;;;;;;;;5052324;28;20328;-86
2022/01/31 14:34:10;;;;;;;19.23;10.18;;;;;;;;;;5052806;28;20025;-86
2022/01/31 14:36:39;;;;;;;22.08;10.70;;;;;;;;;;5052227;28;20032;-85
2022/01/31 14:42:11;;;;;;;42.08;24.58;;;;;;;;;;5052152;28;20048;-81
2022/01/31 14:47:40;;;;;;;37.17;22.63;;;;;;;;;;5073675;28;20056;-85
2022/01/31 14:50:07;;;;;;;34.40;20.92;;;;;;;;;;5082048;28;20554;-86
2022/01/31 14:52:34;;;;;;;28.02;19.48;;;;;;;;;;5075578;28;20498;-82
2022/01/31 14:55:02;;;;;;;19.30;11.45;;;;;;;;;;5093207;28;20040;-87
2022/01/31 14:57:29;;;;;;;22.60;13.65;;;;;;;;;;5091619;28;20558;-81
2022/01/31 14:59:55;;;;;;;24.88;15.60;;;;;;;;;;5090564;28;20059;-88
2022/01/31 15:02:25;;;;;;;18.10;11.05;;;;;;;;;;5091809;28;20016;-84
2022/01/31 15:04:51;;;;;;;26.15;15.35;;;;;;;;;;5091794;28;20115;-87
2022/01/31 15:07:17;;;;;;;41.55;22.45;;;;;;;;;;5091115;28;20024;-83
2022/01/31 15:09:43;;;;;;;50.50;28.65;;;;;;;;;;5074033;28;20028;-82
2022/01/31 15:12:10;;;;;;;31.73;14.82;;;;;;;;;;5091222;28;20035;-87
2022/01/31 15:14:36;;;;;;;19.40;6.22;;;;;;;;;;5086681;28;20100;-84
2022/01/31 15:17:06;;;;;;;9.65;4.53;;;;;;;;;;5091713;28;20040;-83
2022/01/31 15:19:33;;;;;;;13.98;4.55;;;;;;;;;;5073405;28;20379;-83